Time;durP1;ratioP1;P1;durP2;ratioP2;P2;SDS_P1;SDS_P2;PMS_P1;PMS_P2;Temp;Humidity;BMP_temperature;BMP_pressure;BME280_temperature;BME280_humidity;BME280_pressure;Samples;Min_cycle;Max_cycle;Signal;HPM_P1;HPM_P2
2023/04/28 00:02:13;;;;;;;41.03;31.52;;;11.40;77.10;;;;;;5009815;28;20442;-77
2023/04/28 00:04:39;;;;;;;39.35;30.20;;;11.50;77.40;;;;;;5014392;28;20038;-80
2023/04/28 00:07:05;;;;;;;39.80;30.73;;;11.50;77.30;;;;;;5015516;28;20398;-78
2023/04/28 00:09:31;;;;;;;40.17;31.40;;;11.50;77.30;;;;;;5012720;28;20033;-77
2023/04/28 00:11:56;;;;;;;39.85;31.30;;;11.50;77.30;;;;;;5005757;28;20355;-77
2023/04/28 00:14:22;;;;;;;39.30;31.20;;;11.50;77.60;;;;;;5013082;28;20060;-80
2023/04/28 00:16:48;;;;;;;42.55;32.03;;;11.60;77.70;;;;;;5005537;28;20030;-77
2023/04/28 00:19:13;;;;;;;40.90;31.67;;;11.60;77.70;;;;;;5011627;28;20461;-77
2023/04/28 00:21:39;;;;;;;44.25;32.05;;;11.60;77.80;;;;;;5010765;28;20526;-78
2023/04/28 00:24:05;;;;;;;42.92;32.13;;;11.60;77.60;;;;;;5012364;28;20478;-78
2023/04/28 00:26:31;;;;;;;42.60;32.03;;;11.60;77.20;;;;;;5012033;28;20030;-82
2023/04/28 00:28:56;;;;;;;45.55;32.88;;;11.50;77.40;;;;;;5007855;28;20033;-79
2023/04/28 00:31:22;;;;;;;43.38;33.35;;;11.40;77.90;;;;;;5010451;28;20412;-77
2023/04/28 00:33:48;;;;;;;48.28;33.58;;;11.40;78.10;;;;;;5007981;28;20026;-80
2023/04/28 00:36:13;;;;;;;42.70;32.33;;;11.40;78.50;;;;;;5014980;28;20076;-76
2023/04/28 00:38:39;;;;;;;42.20;33.60;;;11.50;78.70;;;;;;5012971;28;20037;-81
2023/04/28 00:41:05;;;;;;;45.63;34.85;;;11.40;79.00;;;;;;5007706;28;20057;-77
2023/04/28 00:43:31;;;;;;;45.92;34.97;;;11.50;79.20;;;;;;5010031;28;20482;-79
2023/04/28 00:45:56;;;;;;;45.13;35.25;;;11.50;78.90;;;;;;5010547;28;20056;-76
2023/04/28 00:48:23;;;;;;;44.50;34.03;;;11.50;79.20;;;;;;5018704;28;20025;-78
2023/04/28 00:50:49;;;;;;;45.42;35.72;;;11.50;79.30;;;;;;5006229;28;20044;-79
2023/04/28 00:53:15;;;;;;;42.42;34.15;;;11.50;79.60;;;;;;5007045;28;20018;-78
2023/04/28 00:55:41;;;;;;;40.83;34.00;;;11.50;79.90;;;;;;5012882;28;20407;-77
2023/04/28 00:58:07;;;;;;;46.45;35.80;;;11.50;80.10;;;;;;5013030;28;20066;-78
2023/04/28 01:00:33;;;;;;;43.22;33.55;;;11.40;80.10;;;;;;5017291;28;20554;-78
2023/04/28 01:02:59;;;;;;;46.97;36.88;;;11.40;80.50;;;;;;5007766;28;20077;-78
2023/04/28 01:05:25;;;;;;;43.88;34.42;;;11.40;80.60;;;;;;5007613;28;20062;-76
2023/04/28 01:07:51;;;;;;;43.47;35.20;;;11.40;81.00;;;;;;5007923;28;20041;-77
2023/04/28 01:10:17;;;;;;;47.95;38.63;;;11.40;81.30;;;;;;5021263;28;20092;-77
2023/04/28 01:12:43;;;;;;;44.47;36.45;;;11.20;81.60;;;;;;5007751;28;20386;-77
2023/04/28 01:15:16;;;;;;;50.20;38.67;;;11.00;82.50;;;;;;5014546;28;20088;-78
2023/04/28 01:17:42;;;;;;;52.58;38.97;;;11.00;83.00;;;;;;5010861;28;20033;-76
2023/04/28 01:20:08;;;;;;;48.22;37.42;;;11.00;83.10;;;;;;5014729;28;20457;-77
2023/04/28 01:22:34;;;;;;;49.75;38.13;;;11.00;83.10;;;;;;5007641;28;20036;-79
2023/04/28 01:25:00;;;;;;;50.30;38.13;;;11.00;83.00;;;;;;5028674;28;20425;-77
2023/04/28 01:27:25;;;;;;;49.70;38.05;;;11.00;83.00;;;;;;5008788;28;20038;-77
2023/04/28 01:29:51;;;;;;;50.55;39.08;;;11.00;83.20;;;;;;5017242;28;20406;-76
2023/04/28 01:32:17;;;;;;;52.47;39.60;;;10.90;83.10;;;;;;5005971;28;20022;-77
2023/04/28 01:34:42;;;;;;;47.95;38.13;;;10.90;83.20;;;;;;5010585;28;20030;-76
2023/04/28 01:37:08;;;;;;;56.88;38.63;;;10.90;83.40;;;;;;5009370;28;20523;-76
2023/04/28 01:39:34;;;;;;;49.97;38.65;;;10.90;83.30;;;;;;5006127;28;20643;-76
2023/04/28 01:42:01;;;;;;;54.35;41.38;;;10.90;83.50;;;;;;5007023;28;20120;-77
2023/04/28 01:44:27;;;;;;;53.13;40.28;;;11.00;83.50;;;;;;5006412;28;20041;-78
2023/04/28 01:46:52;;;;;;;56.83;39.72;;;10.90;83.40;;;;;;5007896;28;20049;-78
2023/04/28 01:49:18;;;;;;;54.15;40.80;;;10.90;83.60;;;;;;5008693;28;20070;-77
2023/04/28 01:51:44;;;;;;;59.05;42.55;;;11.00;83.80;;;;;;5010201;28;20496;-77
2023/04/28 01:54:10;;;;;;;56.63;41.22;;;10.90;83.80;;;;;;5014292;28;20025;-80
2023/04/28 01:56:35;;;;;;;58.65;43.10;;;10.90;84.30;;;;;;5012568;28;20478;-83
2023/04/28 01:59:01;;;;;;;54.22;42.20;;;10.90;84.30;;;;;;5007012;28;20478;-76
2023/04/28 02:01:27;;;;;;;53.15;38.72;;;10.90;84.40;;;;;;5005782;28;20037;-76
2023/04/28 02:03:53;;;;;;;52.67;40.08;;;10.90;84.60;;;;;;5010271;28;20092;-78
2023/04/28 02:06:19;;;;;;;55.88;40.08;;;10.90;84.50;;;;;;5009904;28;20049;-77
2023/04/28 02:08:45;;;;;;;53.72;40.78;;;11.00;84.70;;;;;;5017016;28;20115;-78
2023/04/28 02:11:11;;;;;;;53.47;39.58;;;11.00;84.80;;;;;;5011902;28;20041;-78
2023/04/28 02:13:37;;;;;;;53.22;40.38;;;11.00;85.20;;;;;;5013818;28;20018;-78
2023/04/28 02:16:02;;;;;;;54.70;38.47;;;11.00;85.50;;;;;;5001971;28;20475;-78
2023/04/28 02:18:28;;;;;;;50.08;37.00;;;11.00;85.60;;;;;;5009297;28;20045;-80
2023/04/28 02:20:54;;;;;;;52.85;40.92;;;11.10;85.70;;;;;;5006184;28;20451;-77
2023/04/28 02:23:20;;;;;;;56.50;40.90;;;11.10;85.70;;;;;;5003963;28;20029;-77
2023/04/28 02:25:45;;;;;;;50.63;38.17;;;11.20;85.70;;;;;;5007803;28;20033;-78
2023/04/28 02:28:11;;;;;;;51.55;39.50;;;11.20;85.70;;;;;;5008817;28;20036;-78
2023/04/28 02:30:37;;;;;;;51.00;38.72;;;11.30;85.80;;;;;;5008504;28;20041;-76
2023/04/28 02:33:03;;;;;;;51.05;40.10;;;11.30;85.90;;;;;;5000813;28;20041;-78
2023/04/28 02:35:29;;;;;;;46.25;36.90;;;11.30;86.00;;;;;;5005060;28;20033;-79
2023/04/28 02:37:54;;;;;;;48.38;36.55;;;11.40;86.00;;;;;;5008987;28;20379;-76
2023/04/28 02:40:20;;;;;;;45.30;35.88;;;11.40;86.00;;;;;;5009441;28;20025;-78
2023/04/28 02:42:46;;;;;;;47.05;36.25;;;11.40;86.10;;;;;;5006904;28;20049;-77
2023/04/28 02:45:11;;;;;;;43.50;35.03;;;11.50;86.40;;;;;;5006181;28;20029;-78
2023/04/28 02:47:37;;;;;;;48.33;36.75;;;11.50;86.40;;;;;;5006906;28;20053;-81
2023/04/28 02:50:03;;;;;;;43.75;33.92;;;11.50;86.40;;;;;;5009659;28;20053;-77
2023/04/28 02:52:29;;;;;;;42.90;35.50;;;11.60;86.60;;;;;;5011422;28;20063;-78
2023/04/28 02:54:56;;;;;;;48.03;36.20;;;11.60;86.70;;;;;;5012215;28;20034;-80
2023/04/28 02:57:23;;;;;;;47.22;34.75;;;11.60;86.70;;;;;;5017241;28;20508;-77
2023/04/28 02:59:48;;;;;;;43.00;34.55;;;11.60;86.80;;;;;;5011523;28;20417;-79
2023/04/28 03:02:14;;;;;;;39.75;32.55;;;11.70;87.00;;;;;;5010015;28;20030;-77
2023/04/28 03:04:40;;;;;;;43.28;32.88;;;11.70;87.10;;;;;;5008916;28;20049;-79
2023/04/28 03:07:06;;;;;;;40.10;31.35;;;11.70;87.20;;;;;;5012161;28;20052;-77
2023/04/28 03:09:32;;;;;;;39.08;31.23;;;11.80;87.30;;;;;;5009861;28;20029;-78
2023/04/28 03:11:57;;;;;;;41.38;32.13;;;11.80;87.40;;;;;;5013317;28;20068;-78
2023/04/28 03:14:23;;;;;;;38.03;29.23;;;11.90;87.50;;;;;;5012668;28;20022;-78
2023/04/28 03:16:49;;;;;;;41.25;29.90;;;11.90;87.80;;;;;;5006618;28;20054;-77
2023/04/28 03:19:15;;;;;;;36.65;28.70;;;12.00;87.90;;;;;;5008209;28;20022;-78
2023/04/28 03:21:40;;;;;;;33.28;26.70;;;12.10;88.10;;;;;;5011991;28;20041;-77
2023/04/28 03:24:06;;;;;;;34.35;27.05;;;12.10;88.30;;;;;;5004542;28;20022;-78
2023/04/28 03:26:32;;;;;;;34.83;27.48;;;12.10;88.40;;;;;;5009085;28;20033;-77
2023/04/28 03:28:58;;;;;;;37.67;28.48;;;12.20;88.70;;;;;;5005683;28;20031;-78
2023/04/28 03:31:23;;;;;;;37.30;28.00;;;12.30;89.10;;;;;;5001417;28;20109;-77
2023/04/28 03:33:49;;;;;;;36.40;29.30;;;12.30;89.20;;;;;;5007708;28;20134;-76
2023/04/28 03:36:15;;;;;;;36.55;29.35;;;12.30;89.40;;;;;;5006898;28;20027;-76
2023/04/28 03:38:41;;;;;;;36.67;29.95;;;12.30;89.60;;;;;;5012784;28;20038;-77
2023/04/28 03:41:06;;;;;;;38.13;30.20;;;12.40;89.70;;;;;;5004476;28;20076;-77
2023/04/28 03:43:34;;;;;;;38.63;30.50;;;12.40;89.80;;;;;;5008174;28;20049;-77
2023/04/28 03:46:00;;;;;;;37.08;28.45;;;12.50;89.90;;;;;;5007329;28;20471;-78
2023/04/28 03:48:26;;;;;;;38.55;30.38;;;12.50;89.90;;;;;;5007127;28;20026;-79
2023/04/28 03:50:51;;;;;;;35.05;28.88;;;12.50;89.90;;;;;;5013261;28;20033;-77
2023/04/28 03:53:17;;;;;;;37.47;30.17;;;12.50;90.00;;;;;;5008839;28;20022;-78
2023/04/28 03:55:43;;;;;;;38.63;29.83;;;12.60;90.00;;;;;;5006938;28;20052;-79
2023/04/28 03:58:09;;;;;;;35.22;28.10;;;12.50;90.10;;;;;;5015139;28;20514;-79
2023/04/28 04:00:34;;;;;;;34.40;28.00;;;12.60;90.30;;;;;;5013041;28;20033;-77
2023/04/28 04:03:00;;;;;;;35.25;26.70;;;12.60;90.30;;;;;;5015155;28;20030;-82
2023/04/28 04:05:26;;;;;;;36.42;27.95;;;12.60;90.50;;;;;;5009687;28;20036;-73
2023/04/28 04:07:52;;;;;;;34.92;28.55;;;12.60;90.50;;;;;;5013456;28;20042;-79
2023/04/28 04:10:17;;;;;;;31.85;27.10;;;12.60;90.50;;;;;;5011326;28;20102;-79
2023/04/28 04:12:43;;;;;;;34.13;28.05;;;12.60;90.60;;;;;;5010331;28;20347;-79
2023/04/28 04:15:09;;;;;;;31.88;26.00;;;12.70;90.70;;;;;;5010045;28;20573;-77
2023/04/28 04:17:35;;;;;;;33.05;25.58;;;12.70;90.70;;;;;;5008658;28;20034;-80
2023/04/28 04:20:01;;;;;;;32.28;26.92;;;12.70;90.80;;;;;;5014498;28;20033;-79
2023/04/28 04:22:26;;;;;;;32.15;26.27;;;12.70;90.90;;;;;;5011206;28;20116;-79
2023/04/28 04:24:52;;;;;;;34.30;26.27;;;12.70;91.00;;;;;;5007057;28;20029;-77
2023/04/28 04:27:18;;;;;;;30.77;24.27;;;12.80;91.00;;;;;;5012622;28;20458;-80
2023/04/28 04:29:43;;;;;;;29.42;24.48;;;12.80;91.10;;;;;;5007627;28;20046;-79
2023/04/28 04:32:09;;;;;;;31.48;25.08;;;12.80;91.20;;;;;;5005125;28;20487;-77
2023/04/28 04:34:35;;;;;;;31.60;24.65;;;12.80;91.20;;;;;;5005375;28;20014;-83
2023/04/28 04:37:01;;;;;;;31.33;25.00;;;12.80;91.30;;;;;;5007191;28;20092;-78
2023/04/28 04:39:27;;;;;;;33.58;25.17;;;12.80;91.50;;;;;;5002517;28;20018;-80
2023/04/28 04:41:52;;;;;;;31.35;23.23;;;12.90;91.50;;;;;;4999650;28;20042;-80
2023/04/28 04:44:18;;;;;;;28.77;22.67;;;12.90;91.60;;;;;;4998817;28;20360;-78
2023/04/28 04:46:45;;;;;;;30.33;24.17;;;12.90;91.70;;;;;;5000348;28;20382;-78
2023/04/28 04:49:10;;;;;;;27.10;22.33;;;12.90;91.70;;;;;;5002304;28;20458;-78
2023/04/28 04:51:36;;;;;;;29.90;23.50;;;13.00;91.70;;;;;;5001671;28;20075;-77
2023/04/28 04:54:02;;;;;;;25.45;20.85;;;13.00;91.80;;;;;;5004479;28;20033;-78
2023/04/28 04:56:28;;;;;;;27.15;21.73;;;13.00;91.80;;;;;;5002013;28;20058;-82
2023/04/28 04:58:54;;;;;;;27.23;22.23;;;13.10;91.90;;;;;;5011703;28;20029;-76
2023/04/28 05:01:19;;;;;;;28.50;20.92;;;13.10;92.00;;;;;;5016534;28;20385;-79
2023/04/28 05:03:45;;;;;;;27.83;20.67;;;13.10;91.90;;;;;;5018574;28;20021;-77
2023/04/28 05:06:11;;;;;;;25.13;20.23;;;13.10;91.90;;;;;;5010983;28;20588;-80
2023/04/28 05:08:36;;;;;;;24.05;18.25;;;13.20;91.90;;;;;;5010009;28;20065;-77
2023/04/28 05:11:02;;;;;;;22.25;18.67;;;13.20;92.00;;;;;;5016496;28;20034;-76
2023/04/28 05:13:28;;;;;;;21.33;17.30;;;13.20;92.10;;;;;;5015167;28;20033;-78
2023/04/28 05:15:54;;;;;;;22.60;17.77;;;13.30;92.10;;;;;;4999652;28;20120;-77
2023/04/28 05:18:20;;;;;;;20.50;16.77;;;13.30;92.30;;;;;;5011847;28;20040;-79
2023/04/28 05:20:45;;;;;;;20.95;16.13;;;13.40;92.20;;;;;;5009141;28;20466;-77
2023/04/28 05:23:11;;;;;;;22.30;16.65;;;13.40;92.30;;;;;;5009592;28;20088;-79
2023/04/28 05:25:37;;;;;;;21.10;16.73;;;13.60;92.40;;;;;;5006420;28;20037;-76
2023/04/28 05:28:06;;;;;;;18.20;15.45;;;13.60;92.40;;;;;;5010429;28;20375;-77
2023/04/28 05:30:32;;;;;;;20.60;15.65;;;13.70;92.40;;;;;;5002682;28;20022;-76
2023/04/28 05:32:58;;;;;;;17.90;15.50;;;13.70;92.20;;;;;;5006291;28;20120;-76
2023/04/28 05:35:24;;;;;;;19.08;14.88;;;13.80;92.20;;;;;;5008615;28;20427;-77
2023/04/28 05:37:50;;;;;;;19.17;15.43;;;13.80;92.10;;;;;;5003115;28;20036;-79
2023/04/28 05:40:15;;;;;;;19.45;15.02;;;13.90;92.20;;;;;;4999991;28;20022;-76
2023/04/28 05:42:41;;;;;;;18.75;15.13;;;13.90;92.10;;;;;;5000955;28;20073;-75
2023/04/28 05:45:07;;;;;;;17.80;13.25;;;13.90;92.10;;;;;;5004553;28;20210;-75
2023/04/28 05:47:33;;;;;;;16.58;14.75;;;14.00;91.90;;;;;;5010767;28;20095;-75
2023/04/28 05:49:58;;;;;;;17.90;14.73;;;14.10;91.90;;;;;;5013706;28;20029;-74
2023/04/28 05:52:24;;;;;;;18.17;14.43;;;14.10;91.80;;;;;;5014869;28;20083;-75
2023/04/28 05:54:50;;;;;;;15.75;13.07;;;14.10;91.70;;;;;;5019909;28;20440;-75
2023/04/28 05:57:15;;;;;;;15.27;12.90;;;14.20;91.50;;;;;;5024074;28;20137;-73
2023/04/28 05:59:42;;;;;;;16.80;13.85;;;14.30;91.30;;;;;;5018929;28;20125;-74
2023/04/28 06:02:08;;;;;;;16.48;13.35;;;14.30;91.30;;;;;;5008450;28;20356;-74
2023/04/28 06:04:33;;;;;;;14.98;12.10;;;14.30;91.20;;;;;;5012266;28;20033;-76
2023/04/28 06:06:59;;;;;;;16.45;13.00;;;14.40;91.20;;;;;;5008132;28;20092;-75
2023/04/28 06:09:25;;;;;;;15.68;12.05;;;14.40;90.90;;;;;;5025448;28;20498;-76
2023/04/28 06:11:50;;;;;;;16.10;12.40;;;14.40;90.80;;;;;;5006641;28;20100;-74
2023/04/28 06:14:16;;;;;;;14.00;11.05;;;14.20;90.80;;;;;;5005421;28;20313;-75
2023/04/28 06:16:42;;;;;;;15.10;11.52;;;14.30;91.00;;;;;;5015983;28;20036;-75
2023/04/28 06:19:07;;;;;;;13.98;11.55;;;14.30;91.10;;;;;;5020609;28;20016;-76
2023/04/28 06:21:33;;;;;;;15.32;12.10;;;14.30;91.10;;;;;;5005153;28;20402;-76
2023/04/28 06:24:00;;;;;;;13.45;11.80;;;14.30;91.00;;;;;;5005405;28;20026;-75
2023/04/28 06:26:26;;;;;;;14.88;12.27;;;14.30;91.00;;;;;;5015195;28;20062;-76
2023/04/28 06:28:52;;;;;;;14.60;12.02;;;14.40;91.10;;;;;;5003149;28;20014;-74
2023/04/28 06:31:17;;;;;;;15.30;11.88;;;14.40;91.00;;;;;;5008975;28;20050;-74
2023/04/28 06:33:43;;;;;;;14.65;11.32;;;14.40;91.00;;;;;;5009852;28;20044;-75
2023/04/28 06:36:12;;;;;;;12.48;9.52;;;14.40;91.10;;;;;;5014998;28;20167;-76
2023/04/28 06:38:39;;;;;;;11.70;8.93;;;14.40;90.90;;;;;;5007512;28;20040;-75
2023/04/28 06:41:04;;;;;;;10.90;8.25;;;14.50;90.90;;;;;;5018240;28;20491;-74
2023/04/28 06:43:31;;;;;;;10.90;7.78;;;14.60;90.80;;;;;;5020373;28;20014;-75
2023/04/28 06:45:56;;;;;;;11.13;7.75;;;14.60;90.50;;;;;;5010787;28;20132;-74
2023/04/28 06:48:24;;;;;;;10.00;7.30;;;14.60;90.40;;;;;;5015307;28;20140;-74
2023/04/28 06:50:49;;;;;;;11.98;7.47;;;14.60;90.20;;;;;;5015034;28;20029;-75
2023/04/28 06:53:15;;;;;;;9.55;6.97;;;14.70;90.10;;;;;;5017157;28;20022;-75
2023/04/28 06:55:41;;;;;;;9.43;6.35;;;14.70;89.90;;;;;;5010677;28;20422;-74
2023/04/28 06:58:07;;;;;;;8.98;6.70;;;14.70;89.70;;;;;;5016657;28;20196;-76
2023/04/28 07:00:33;;;;;;;9.55;6.53;;;14.70;89.80;;;;;;5015496;28;20052;-74
2023/04/28 07:02:59;;;;;;;9.40;6.57;;;14.70;89.80;;;;;;5020150;28;20029;-75
2023/04/28 07:05:25;;;;;;;8.98;6.60;;;14.70;89.70;;;;;;5023116;28;20021;-74
2023/04/28 07:07:51;;;;;;;10.13;6.90;;;14.70;89.70;;;;;;5018541;28;20538;-73
2023/04/28 07:10:17;;;;;;;10.20;6.88;;;14.70;89.40;;;;;;5010562;28;20026;-74
2023/04/28 07:12:44;;;;;;;12.68;7.25;;;14.70;89.50;;;;;;5017586;28;20378;-75
2023/04/28 07:15:10;;;;;;;10.05;6.80;;;14.80;89.60;;;;;;5004107;28;20026;-74
2023/04/28 07:17:36;;;;;;;9.88;6.85;;;14.80;89.60;;;;;;5006283;28;20033;-76
2023/04/28 07:20:04;;;;;;;11.45;6.63;;;14.80;89.20;;;;;;5012106;28;20111;-74
2023/04/28 07:22:30;;;;;;;9.50;6.57;;;14.90;89.40;;;;;;5010714;28;20054;-75
2023/04/28 07:24:56;;;;;;;10.82;6.88;;;14.80;89.30;;;;;;5020003;28;20025;-76
2023/04/28 07:27:22;;;;;;;9.02;6.97;;;14.80;89.40;;;;;;5008182;28;20025;-75
2023/04/28 07:29:49;;;;;;;8.95;6.65;;;14.90;89.50;;;;;;5008654;28;20261;-75
2023/04/28 07:32:15;;;;;;;11.68;6.72;;;15.00;89.10;;;;;;5004939;28;20096;-74
2023/04/28 07:34:41;;;;;;;9.45;6.05;;;15.10;89.00;;;;;;5017129;28;20119;-74
2023/04/28 07:37:07;;;;;;;9.23;5.68;;;15.10;89.00;;;;;;5009086;28;20042;-75
2023/04/28 07:39:33;;;;;;;8.70;5.07;;;15.00;88.70;;;;;;5001224;28;20369;-76
2023/04/28 07:42:01;;;;;;;7.82;5.10;;;15.00;89.00;;;;;;5000897;28;20041;-74
2023/04/28 07:44:28;;;;;;;8.55;4.93;;;15.10;88.90;;;;;;5014566;28;20044;-75
2023/04/28 07:46:55;;;;;;;8.02;4.85;;;15.10;88.80;;;;;;5023968;28;20042;-77
2023/04/28 07:49:21;;;;;;;7.30;4.10;;;15.10;88.70;;;;;;5025377;28;20428;-76
2023/04/28 07:51:47;;;;;;;6.72;4.18;;;15.30;88.40;;;;;;5008874;28;20030;-76
2023/04/28 07:54:14;;;;;;;6.63;3.90;;;15.40;88.20;;;;;;5014875;28;20080;-75
2023/04/28 07:56:40;;;;;;;7.47;4.00;;;15.60;87.90;;;;;;5010738;28;20034;-74
2023/04/28 07:59:06;;;;;;;6.78;3.80;;;15.60;87.20;;;;;;5007330;28;20076;-77
2023/04/28 08:01:31;;;;;;;6.90;3.92;;;15.50;86.80;;;;;;5017810;28;20069;-75
2023/04/28 08:03:57;;;;;;;5.78;3.38;;;15.50;86.60;;;;;;5015787;28;20433;-75
2023/04/28 08:06:23;;;;;;;5.75;3.03;;;15.50;86.40;;;;;;5018472;28;20040;-73
2023/04/28 08:08:48;;;;;;;5.95;3.03;;;15.30;86.50;;;;;;5016549;28;20029;-75
2023/04/28 08:11:14;;;;;;;5.70;3.25;;;15.40;86.30;;;;;;5016650;28;20643;-75
2023/04/28 08:13:40;;;;;;;5.68;2.75;;;15.50;86.50;;;;;;5023011;28;20079;-75
2023/04/28 08:16:06;;;;;;;4.68;2.75;;;15.50;85.90;;;;;;5017006;28;20026;-74
2023/04/28 08:18:31;;;;;;;5.28;2.58;;;15.40;85.40;;;;;;5007035;28;20409;-73
2023/04/28 08:20:57;;;;;;;4.63;2.20;;;15.40;85.40;;;;;;5013225;28;20057;-74
2023/04/28 08:23:27;;;;;;;4.32;2.45;;;15.50;84.50;;;;;;5014595;28;20025;-73
2023/04/28 08:25:52;;;;;;;6.00;2.90;;;15.50;84.20;;;;;;5009945;28;20028;-73
2023/04/28 08:28:18;;;;;;;4.63;2.80;;;15.50;84.20;;;;;;5013590;28;20014;-74
2023/04/28 08:30:44;;;;;;;5.38;2.50;;;15.60;84.20;;;;;;5019028;28;20030;-74
2023/04/28 08:33:10;;;;;;;4.63;2.75;;;15.40;84.20;;;;;;5016577;28;20025;-75
2023/04/28 08:35:35;;;;;;;6.47;3.22;;;15.50;84.20;;;;;;5015796;28;20048;-76
2023/04/28 08:38:01;;;;;;;5.20;2.75;;;15.40;83.70;;;;;;5022743;28;20225;-74
2023/04/28 08:40:28;;;;;;;4.63;2.65;;;15.40;84.20;;;;;;5014176;28;20041;-73
2023/04/28 08:42:54;;;;;;;5.88;2.70;;;15.50;84.00;;;;;;5014949;28;20465;-76
2023/04/28 08:45:22;;;;;;;5.40;2.67;;;15.50;84.00;;;;;;5015437;28;20026;-74
2023/04/28 08:47:50;;;;;;;6.30;2.50;;;15.50;84.10;;;;;;5013434;28;20449;-76
2023/04/28 08:50:21;;;;;;;6.72;3.50;;;15.50;84.10;;;;;;5012250;28;20013;-75
2023/04/28 08:52:46;;;;;;;6.25;3.50;;;15.50;83.70;;;;;;5015880;28;20021;-74
2023/04/28 08:55:12;;;;;;;5.82;3.17;;;15.50;84.00;;;;;;5015289;28;20507;-75
2023/04/28 08:57:48;;;;;;;7.18;2.97;;;15.40;84.10;;;;;;5021902;28;20025;-76
2023/04/28 09:00:14;;;;;;;4.70;2.55;;;15.40;83.80;;;;;;5021280;28;20076;-76
2023/04/28 09:02:41;;;;;;;4.85;2.50;;;15.50;83.50;;;;;;5015697;28;20045;-73
2023/04/28 09:05:11;;;;;;;5.35;2.50;;;15.40;83.60;;;;;;5020387;28;20033;-73
2023/04/28 09:07:37;;;;;;;8.43;2.72;;;15.50;83.70;;;;;;5025235;28;20030;-77
2023/04/28 09:10:19;;;;;;;4.60;2.50;;;15.40;83.80;;;;;;5022789;28;20436;-75
2023/04/28 09:12:47;;;;;;;4.55;2.45;;;15.40;84.10;;;;;;5010273;28;20056;-74
2023/04/28 09:15:31;;;;;;;6.38;2.70;;;15.30;83.90;;;;;;5019010;28;20020;-75
2023/04/28 09:17:58;;;;;;;5.05;2.80;;;15.10;84.40;;;;;;5012177;28;20056;-75
2023/04/28 09:20:25;;;;;;;5.90;2.95;;;15.20;84.30;;;;;;5029575;28;20025;-74
2023/04/28 09:22:54;;;;;;;5.82;2.70;;;15.10;83.90;;;;;;5013747;28;20041;-75
2023/04/28 09:25:21;;;;;;;6.82;3.00;;;15.00;84.00;;;;;;5010276;28;20014;-74
2023/04/28 09:27:48;;;;;;;6.85;3.22;;;15.10;83.90;;;;;;5017651;28;20139;-74
2023/04/28 09:30:15;;;;;;;6.35;2.92;;;15.10;83.90;;;;;;5024334;28;20033;-75
2023/04/28 09:32:41;;;;;;;6.90;3.38;;;15.20;83.60;;;;;;5011460;28;20393;-74
2023/04/28 09:35:07;;;;;;;8.15;3.22;;;15.10;83.70;;;;;;5016157;28;20032;-76
2023/04/28 09:37:33;;;;;;;6.28;3.22;;;15.10;83.80;;;;;;5035444;28;20469;-75
2023/04/28 09:40:10;;;;;;;6.00;3.30;;;15.10;83.90;;;;;;5011412;28;20382;-75
2023/04/28 09:42:46;;;;;;;5.38;2.72;;;15.30;83.60;;;;;;5018604;28;20049;-75
2023/04/28 09:45:13;;;;;;;6.10;2.67;;;15.30;82.80;;;;;;5018836;28;20037;-75
2023/04/28 09:47:45;;;;;;;6.47;3.03;;;15.20;83.20;;;;;;5015268;28;20041;-78
2023/04/28 09:50:13;;;;;;;6.60;2.45;;;15.50;82.80;;;;;;5009190;28;20013;-78
2023/04/28 09:52:40;;;;;;;3.88;2.00;;;15.60;81.60;;;;;;5018965;28;20299;-76
2023/04/28 09:55:10;;;;;;;4.53;2.20;;;15.60;80.50;;;;;;5017647;28;20377;-75
2023/04/28 09:57:37;;;;;;;3.75;1.90;;;15.70;80.70;;;;;;5001867;28;20061;-75
2023/04/28 10:00:05;;;;;;;7.60;2.17;;;15.80;79.50;;;;;;5006748;28;20912;-75
2023/04/28 10:02:32;;;;;;;4.60;2.10;;;15.80;79.00;;;;;;5013693;28;20125;-75
2023/04/28 10:04:59;;;;;;;3.15;1.65;;;15.80;79.60;;;;;;5011823;28;20071;-75
2023/04/28 10:07:25;;;;;;;5.10;2.00;;;15.70;79.40;;;;;;5011434;28;20359;-76
2023/04/28 10:09:52;;;;;;;3.53;1.88;;;15.70;79.20;;;;;;5017250;28;20528;-73
2023/04/28 10:12:20;;;;;;;4.95;2.50;;;15.70;78.50;;;;;;5011592;28;20022;-74
2023/04/28 10:14:49;;;;;;;4.07;2.25;;;15.70;78.70;;;;;;5012019;28;20044;-73
2023/04/28 10:17:15;;;;;;;3.20;2.10;;;15.50;79.10;;;;;;5013410;28;20037;-74
2023/04/28 10:19:44;;;;;;;4.10;2.40;;;15.50;79.10;;;;;;5008634;28;20029;-74
2023/04/28 10:22:21;;;;;;;4.85;1.67;;;15.60;78.60;;;;;;5008517;28;20045;-74
2023/04/28 10:25:07;;;;;;;3.35;2.20;;;15.90;77.70;;;;;;5018996;28;20029;-72
2023/04/28 10:27:35;;;;;;;4.63;2.00;;;16.00;77.20;;;;;;5012061;28;20572;-74
2023/04/28 10:30:16;;;;;;;2.97;1.70;;;16.10;77.00;;;;;;5020566;28;20108;-74
2023/04/28 10:32:42;;;;;;;5.32;2.17;;;16.00;75.80;;;;;;5009332;28;20684;-73
2023/04/28 10:35:20;;;;;;;4.13;2.17;;;16.10;76.30;;;;;;5018654;28;20024;-73
2023/04/28 10:38:12;;;;;;;3.38;2.17;;;15.90;76.80;;;;;;5020218;28;20037;-75
2023/04/28 10:40:48;;;;;;;3.28;1.70;;;15.90;76.60;;;;;;4995682;28;20073;-75
2023/04/28 10:43:14;;;;;;;2.63;1.77;;;16.00;76.60;;;;;;5023171;28;20087;-76
2023/04/28 10:45:51;;;;;;;4.85;2.38;;;16.10;76.40;;;;;;5008639;28;20034;-76
2023/04/28 10:48:18;;;;;;;4.15;2.47;;;16.10;76.40;;;;;;5009936;28;20476;-75
2023/04/28 10:51:02;;;;;;;3.35;2.00;;;16.20;76.40;;;;;;5013525;28;20411;-74
2023/04/28 10:53:43;;;;;;;4.50;1.90;;;16.10;76.70;;;;;;5015190;28;20013;-73
2023/04/28 10:56:26;;;;;;;5.05;2.30;;;16.10;76.40;;;;;;5010057;28;20540;-75
2023/04/28 10:58:56;;;;;;;3.40;2.03;;;16.10;77.10;;;;;;5008653;28;20129;-75
2023/04/28 11:01:24;;;;;;;3.20;1.80;;;16.10;77.00;;;;;;5009808;28;20041;-74
2023/04/28 11:06:34;;;;;;;3.50;1.70;;;16.10;76.40;;;;;;5014857;28;20120;-78
2023/04/28 11:09:22;;;;;;;3.50;1.80;;;15.90;76.40;;;;;;5019782;28;20040;-76
2023/04/28 11:11:54;;;;;;;3.63;1.80;;;15.90;76.60;;;;;;5011550;28;20044;-77
2023/04/28 11:14:20;;;;;;;4.13;2.15;;;15.70;77.10;;;;;;5020112;28;20014;-76
2023/04/28 11:16:53;;;;;;;3.53;2.20;;;15.80;77.50;;;;;;5018275;28;20084;-76
2023/04/28 11:19:23;;;;;;;3.00;2.08;;;16.00;77.50;;;;;;5015157;28;20635;-76
2023/04/28 11:21:50;;;;;;;2.90;1.77;;;16.00;77.10;;;;;;5018990;28;20038;-76
2023/04/28 11:24:16;;;;;;;3.35;2.03;;;16.10;76.80;;;;;;5010794;28;20096;-77
2023/04/28 11:26:43;;;;;;;3.38;2.03;;;16.10;76.70;;;;;;5018590;28;20176;-78
2023/04/28 11:29:09;;;;;;;3.53;2.05;;;16.00;77.10;;;;;;5020006;28;20022;-75
2023/04/28 11:31:36;;;;;;;3.47;2.28;;;16.10;76.90;;;;;;5020318;28;20052;-76
2023/04/28 11:34:11;;;;;;;4.55;2.55;;;16.10;76.90;;;;;;5003393;28;20029;-76
2023/04/28 11:36:38;;;;;;;3.83;2.10;;;16.10;77.00;;;;;;5002726;28;20425;-75
2023/04/28 11:39:11;;;;;;;4.30;2.47;;;16.00;76.60;;;;;;5002853;28;20042;-75
2023/04/28 11:41:44;;;;;;;4.90;2.70;;;15.90;77.20;;;;;;5005759;28;20038;-76
2023/04/28 11:44:18;;;;;;;5.20;2.90;;;15.90;77.20;;;;;;5004047;28;20018;-75
2023/04/28 11:46:44;;;;;;;4.32;2.55;;;15.80;76.90;;;;;;5002089;28;20045;-76
2023/04/28 11:49:10;;;;;;;3.75;2.45;;;15.70;77.40;;;;;;5001535;28;20026;-78
2023/04/28 11:51:37;;;;;;;6.25;2.97;;;15.80;77.40;;;;;;5000499;28;20478;-76
2023/04/28 11:54:06;;;;;;;4.32;2.90;;;15.70;77.60;;;;;;5017408;28;20032;-75
2023/04/28 11:56:37;;;;;;;5.03;3.38;;;15.60;78.20;;;;;;4999897;28;21174;-76
2023/04/28 11:59:06;;;;;;;5.05;3.13;;;15.70;78.20;;;;;;5000072;28;20072;-75
2023/04/28 12:01:36;;;;;;;5.32;3.00;;;15.70;78.40;;;;;;4998481;28;20029;-76
2023/04/28 12:04:02;;;;;;;4.57;3.50;;;15.60;78.90;;;;;;5020682;28;20491;-76
2023/04/28 12:06:28;;;;;;;4.78;2.92;;;15.60;79.30;;;;;;5020225;28;20033;-76
2023/04/28 12:08:54;;;;;;;4.35;2.70;;;15.70;78.80;;;;;;5020945;28;20076;-76
2023/04/28 12:11:20;;;;;;;5.65;2.80;;;15.90;77.60;;;;;;5016740;28;20042;-75
2023/04/28 12:14:06;;;;;;;5.97;2.90;;;16.10;77.40;;;;;;5023432;28;20026;-74
2023/04/28 12:16:42;;;;;;;4.72;2.72;;;16.10;77.60;;;;;;5020144;28;20496;-75
2023/04/28 12:19:10;;;;;;;5.25;3.20;;;16.00;78.00;;;;;;5014817;28;20022;-75
2023/04/28 12:21:39;;;;;;;4.90;3.20;;;15.80;78.40;;;;;;5025183;28;20052;-76
2023/04/28 12:24:20;;;;;;;5.63;3.40;;;15.90;78.90;;;;;;5024230;28;20478;-74
2023/04/28 12:26:47;;;;;;;6.05;3.63;;;16.00;79.00;;;;;;5018306;28;20044;-75
2023/04/28 12:29:39;;;;;;;5.00;3.28;;;16.10;78.40;;;;;;5010423;28;20449;-76
2023/04/28 12:32:07;;;;;;;5.25;3.03;;;16.00;79.00;;;;;;5007180;28;20034;-77
2023/04/28 12:34:33;;;;;;;5.80;3.22;;;16.10;78.90;;;;;;5008713;28;20019;-76
2023/04/28 12:37:00;;;;;;;6.68;3.38;;;16.10;78.60;;;;;;5012969;28;20516;-76
2023/04/28 12:39:26;;;;;;;7.18;3.72;;;16.10;78.00;;;;;;5011882;28;20042;-75